createdAt,value
2019-03-03T00:01:54.153Z,12.70
2019-03-03T00:04:22.116Z,12.70
2019-03-03T00:06:48.940Z,12.70
2019-03-03T00:09:16.041Z,12.80
2019-03-03T00:11:43.573Z,12.80
2019-03-03T00:14:11.401Z,12.70
2019-03-03T00:16:38.820Z,12.70
2019-03-03T00:19:06.036Z,12.80
2019-03-03T00:21:32.810Z,12.70
2019-03-03T00:23:59.647Z,12.70
2019-03-03T00:26:26.548Z,12.70
2019-03-03T00:28:53.555Z,12.70
2019-03-03T00:31:30.016Z,12.80
2019-03-03T00:33:56.959Z,12.70
2019-03-03T00:36:25.854Z,12.70
2019-03-03T00:38:57.237Z,12.80
2019-03-03T00:41:32.148Z,12.80
2019-03-03T00:44:08.404Z,12.70
2019-03-03T00:46:40.345Z,12.60
2019-03-03T00:49:27.236Z,12.60
2019-03-03T00:52:14.210Z,12.60
2019-03-03T00:54:53.046Z,12.70
2019-03-03T00:57:21.999Z,12.80
2019-03-03T01:00:00.393Z,12.90
2019-03-03T01:02:45.798Z,12.70
2019-03-03T01:05:20.155Z,12.80
2019-03-03T01:07:55.647Z,12.90
2019-03-03T01:10:33.162Z,12.90
2019-03-03T01:13:05.079Z,12.80
2019-03-03T01:15:46.250Z,12.80
2019-03-03T01:18:32.194Z,12.80
2019-03-03T01:21:00.988Z,12.80
2019-03-03T01:23:35.832Z,12.70
2019-03-03T01:26:03.290Z,12.60
2019-03-03T01:28:30.322Z,12.60
2019-03-03T01:30:57.309Z,12.60
2019-03-03T01:33:24.105Z,12.60
2019-03-03T01:35:51.534Z,12.50
2019-03-03T01:38:18.473Z,12.40
2019-03-03T01:40:45.385Z,12.30
2019-03-03T01:43:12.231Z,12.30
2019-03-03T01:45:38.952Z,12.40
2019-03-03T01:48:05.674Z,12.40
2019-03-03T01:50:32.891Z,12.40
2019-03-03T01:52:59.608Z,12.40
2019-03-03T01:55:26.712Z,12.40
2019-03-03T01:57:53.538Z,12.40
2019-03-03T02:00:23.538Z,12.30
2019-03-03T02:02:50.555Z,12.30
2019-03-03T02:05:17.474Z,12.20
2019-03-03T02:07:46.234Z,12.20
2019-03-03T02:10:14.280Z,12.30
2019-03-03T02:12:43.747Z,12.30
2019-03-03T02:15:11.223Z,12.40
2019-03-03T02:17:40.152Z,12.30
2019-03-03T02:20:09.251Z,12.20
2019-03-03T02:22:35.917Z,12.20
2019-03-03T02:25:08.501Z,12.20
2019-03-03T02:27:35.526Z,12.30
2019-03-03T02:30:13.903Z,12.40
2019-03-03T02:32:42.572Z,12.40
2019-03-03T02:35:10.633Z,12.30
2019-03-03T02:37:39.300Z,12.40
2019-03-03T02:40:11.928Z,12.40
2019-03-03T02:42:39.765Z,12.40
2019-03-03T02:45:09.687Z,12.40
2019-03-03T02:47:36.768Z,12.30
2019-03-03T02:50:07.016Z,12.40
2019-03-03T02:52:34.029Z,12.40
2019-03-03T02:55:14.810Z,12.50
2019-03-03T02:57:42.453Z,12.50
2019-03-03T03:00:15.850Z,12.50
2019-03-03T03:02:47.202Z,12.50
2019-03-03T03:05:16.028Z,12.40
2019-03-03T03:07:47.750Z,12.40
2019-03-03T03:10:23.827Z,12.50
2019-03-03T03:12:56.943Z,12.40
2019-03-03T03:15:28.365Z,12.40
2019-03-03T03:18:03.122Z,12.50
2019-03-03T03:20:48.831Z,12.50
2019-03-03T03:23:20.677Z,12.30
2019-03-03T03:25:55.393Z,12.30
2019-03-03T03:28:24.606Z,12.30
2019-03-03T03:30:53.483Z,12.40
2019-03-03T03:33:22.199Z,12.50
2019-03-03T03:35:56.740Z,12.30
2019-03-03T03:38:25.448Z,12.40
2019-03-03T03:41:00.076Z,12.50
2019-03-03T03:43:29.006Z,12.40
2019-03-03T03:46:16.103Z,12.50
2019-03-03T03:48:56.970Z,12.60
2019-03-03T03:51:28.415Z,12.50
2019-03-03T03:54:12.836Z,12.40
2019-03-03T03:56:58.555Z,12.40
2019-03-03T03:59:44.133Z,12.50
2019-03-03T04:02:26.172Z,12.40
2019-03-03T04:04:57.920Z,12.40
2019-03-03T04:07:26.880Z,12.50
2019-03-03T04:10:12.381Z,12.50
2019-03-03T04:12:41.188Z,12.50
2019-03-03T04:15:10.255Z,12.50
2019-03-03T04:17:38.859Z,12.40
2019-03-03T04:20:08.573Z,12.50
2019-03-03T04:22:40.072Z,12.40
2019-03-03T04:25:18.004Z,12.50
2019-03-03T04:27:55.562Z,12.50
2019-03-03T04:30:24.414Z,12.50
2019-03-03T04:33:08.485Z,12.50
2019-03-03T04:35:40.151Z,12.40
2019-03-03T04:38:08.966Z,12.50
2019-03-03T04:40:37.892Z,12.50
2019-03-03T04:43:06.489Z,12.50
2019-03-03T04:45:35.221Z,12.50
2019-03-03T04:48:22.635Z,12.60
2019-03-03T04:50:57.372Z,12.60
2019-03-03T04:53:29.085Z,12.70
2019-03-03T04:56:06.706Z,12.70
2019-03-03T04:58:38.550Z,12.70
2019-03-03T05:01:07.350Z,12.60
2019-03-03T05:03:35.977Z,12.60
2019-03-03T05:06:21.369Z,12.50
2019-03-03T05:08:51.315Z,12.60
2019-03-03T05:11:40.922Z,12.70
2019-03-03T05:14:12.717Z,12.80
2019-03-03T05:16:44.539Z,12.80
2019-03-03T05:19:11.358Z,12.70
2019-03-03T05:21:38.338Z,12.70
2019-03-03T05:24:05.774Z,12.80
2019-03-03T05:26:32.800Z,12.70
2019-03-03T05:28:59.481Z,12.70
2019-03-03T05:31:26.190Z,12.70
2019-03-03T05:33:53.101Z,12.70
2019-03-03T05:36:19.954Z,12.70
2019-03-03T05:38:46.866Z,12.80
2019-03-03T05:41:13.697Z,12.80
2019-03-03T05:43:40.413Z,12.90
2019-03-03T05:46:07.464Z,12.90
2019-03-03T05:48:35.956Z,12.90
2019-03-03T05:51:03.058Z,13.00
2019-03-03T05:53:29.940Z,13.00
2019-03-03T05:55:56.851Z,13.00
2019-03-03T05:58:23.650Z,12.90
2019-03-03T06:00:51.470Z,12.90
2019-03-03T06:03:18.412Z,12.80
2019-03-03T06:05:47.362Z,13.00
2019-03-03T06:08:14.113Z,12.90
2019-03-03T06:10:41.010Z,13.00
2019-03-03T06:13:07.725Z,12.90
2019-03-03T06:15:34.897Z,12.80
2019-03-03T06:18:01.893Z,12.90
2019-03-03T06:20:28.794Z,12.90
2019-03-03T06:22:56.698Z,12.90
2019-03-03T06:25:23.307Z,12.90
2019-03-03T06:27:50.221Z,12.80
2019-03-03T06:30:17.122Z,12.90
2019-03-03T06:32:45.637Z,12.90
2019-03-03T06:35:12.721Z,12.80
2019-03-03T06:37:39.392Z,12.90
2019-03-03T06:40:09.063Z,12.90
2019-03-03T06:42:36.283Z,12.70
2019-03-03T06:45:06.612Z,12.80
2019-03-03T06:47:33.334Z,12.80
2019-03-03T06:50:00.053Z,12.60
2019-03-03T06:52:27.061Z,12.50
2019-03-03T06:54:54.084Z,12.50
2019-03-03T06:57:22.379Z,12.60
2019-03-03T06:59:49.035Z,12.50
2019-03-03T07:02:15.927Z,12.50
2019-03-03T07:04:42.994Z,12.40
2019-03-03T07:07:09.850Z,12.30
2019-03-03T07:09:36.634Z,12.40
2019-03-03T07:12:03.580Z,12.30
2019-03-03T07:14:30.489Z,12.30
2019-03-03T07:16:58.426Z,12.20
2019-03-03T07:19:25.232Z,12.10
2019-03-03T07:21:52.626Z,12.20
2019-03-03T07:24:19.298Z,12.30
2019-03-03T07:26:46.213Z,12.30
2019-03-03T07:29:13.169Z,12.30
2019-03-03T07:31:39.987Z,12.30
2019-03-03T07:34:06.911Z,12.30
2019-03-03T07:36:33.755Z,12.20
2019-03-03T07:39:04.638Z,12.10
2019-03-03T07:41:33.315Z,12.10
2019-03-03T07:44:00.023Z,12.10
2019-03-03T07:46:26.812Z,12.10
2019-03-03T07:48:53.783Z,12.00
2019-03-03T07:51:24.071Z,12.10
2019-03-03T07:53:50.947Z,12.20
2019-03-03T07:56:17.887Z,12.20
2019-03-03T07:58:44.937Z,12.30
2019-03-03T08:01:12.282Z,12.30
2019-03-03T08:03:39.113Z,12.40
2019-03-03T08:06:06.072Z,12.30
2019-03-03T08:08:33.193Z,12.40
2019-03-03T08:10:59.915Z,12.40
2019-03-03T08:13:26.883Z,12.30
2019-03-03T08:15:53.994Z,12.40
2019-03-03T08:18:22.033Z,12.50
2019-03-03T08:20:48.974Z,12.50
2019-03-03T08:23:15.702Z,12.40
2019-03-03T08:25:43.016Z,12.40
2019-03-03T08:28:09.954Z,12.50
2019-03-03T08:30:37.089Z,12.50
2019-03-03T08:33:05.843Z,12.50
2019-03-03T08:35:32.537Z,12.50
2019-03-03T08:37:59.868Z,12.50
2019-03-03T08:40:28.270Z,12.60
2019-03-03T08:43:04.159Z,12.70
2019-03-03T08:45:36.606Z,12.70
2019-03-03T08:48:05.527Z,12.60
2019-03-03T08:50:40.879Z,12.50
2019-03-03T08:53:09.957Z,12.50
2019-03-03T08:55:39.097Z,12.50
2019-03-03T08:58:10.745Z,12.60
2019-03-03T09:00:42.774Z,12.60
2019-03-03T09:03:17.018Z,12.70
2019-03-03T09:05:48.839Z,12.70
2019-03-03T09:08:23.338Z,12.60
2019-03-03T09:10:55.349Z,12.60
2019-03-03T09:13:33.434Z,12.70
2019-03-03T09:16:07.944Z,12.60
2019-03-03T09:18:39.616Z,12.60
2019-03-03T09:21:17.563Z,12.60
2019-03-03T09:23:49.027Z,12.70
2019-03-03T09:26:32.964Z,12.70
2019-03-03T09:29:05.146Z,12.70
2019-03-03T09:31:33.963Z,12.80
2019-03-03T09:34:08.358Z,12.80
2019-03-03T09:36:43.081Z,12.70
2019-03-03T09:39:11.942Z,12.80
2019-03-03T09:41:46.690Z,12.90
2019-03-03T09:44:18.721Z,12.90
2019-03-03T09:46:54.463Z,13.00
2019-03-03T09:49:29.535Z,13.10
2019-03-03T09:51:58.944Z,13.10
2019-03-03T09:54:30.626Z,13.10
2019-03-03T09:57:16.154Z,13.10
2019-03-03T09:59:47.966Z,13.20
2019-03-03T10:02:19.454Z,13.20
2019-03-03T10:04:54.259Z,13.20
2019-03-03T10:07:39.579Z,13.20
2019-03-03T10:10:14.909Z,13.20
2019-03-03T10:12:45.561Z,13.20
2019-03-03T10:15:29.422Z,13.20
2019-03-03T10:18:07.374Z,13.30
2019-03-03T10:20:39.195Z,13.20
2019-03-03T10:23:09.307Z,13.30
2019-03-03T10:25:47.213Z,13.40
2019-03-03T10:28:32.543Z,13.40
2019-03-03T10:31:13.638Z,13.40
2019-03-03T10:33:54.654Z,13.40
2019-03-03T10:36:26.183Z,13.40
2019-03-03T10:38:58.164Z,13.30
2019-03-03T10:41:43.785Z,13.30
2019-03-03T10:44:12.609Z,13.40
2019-03-03T10:46:41.451Z,13.40
2019-03-03T10:49:10.209Z,13.40
2019-03-03T10:51:44.802Z,13.50
2019-03-03T10:54:28.929Z,13.50
2019-03-03T10:57:02.908Z,13.50
2019-03-03T10:59:54.801Z,13.50
2019-03-03T11:02:22.102Z,13.50
2019-03-03T11:04:51.468Z,13.50
2019-03-03T11:07:27.255Z,13.60
2019-03-03T11:09:56.280Z,13.60
2019-03-03T11:12:25.412Z,13.50
2019-03-03T11:14:54.678Z,13.60
2019-03-03T11:17:32.559Z,13.50
2019-03-03T11:20:07.012Z,13.60
2019-03-03T11:22:48.075Z,13.60
2019-03-03T11:25:33.425Z,13.60
2019-03-03T11:28:23.401Z,13.50
2019-03-03T11:30:49.807Z,13.50
2019-03-03T11:33:35.682Z,13.60
2019-03-03T11:36:05.773Z,13.60
2019-03-03T11:38:52.693Z,13.70
2019-03-03T11:41:21.772Z,13.70
2019-03-03T11:43:53.405Z,13.70
2019-03-03T11:46:31.145Z,13.80
2019-03-03T11:49:03.136Z,14.00
2019-03-03T11:51:31.990Z,13.90
2019-03-03T11:54:16.046Z,13.70
2019-03-03T11:56:59.814Z,13.70
2019-03-03T11:59:45.424Z,13.70
2019-03-03T12:02:26.053Z,13.80
2019-03-03T12:05:03.800Z,13.80
2019-03-03T12:07:40.321Z,13.80
2019-03-03T12:10:09.388Z,13.80
2019-03-03T12:12:56.308Z,13.80
2019-03-03T12:15:34.215Z,13.80
2019-03-03T12:18:09.572Z,13.80
2019-03-03T12:20:56.300Z,13.80
2019-03-03T12:23:25.661Z,13.80
2019-03-03T12:25:57.305Z,13.80
2019-03-03T12:28:42.623Z,13.90
2019-03-03T12:31:12.045Z,14.00
2019-03-03T12:33:52.547Z,14.00
2019-03-03T12:36:21.503Z,14.00
2019-03-03T12:38:59.437Z,14.10
2019-03-03T12:41:31.040Z,13.90
2019-03-03T12:44:02.751Z,13.90
2019-03-03T12:46:31.620Z,14.00
2019-03-03T12:49:00.661Z,14.10
2019-03-03T12:51:29.297Z,14.10
2019-03-03T12:54:16.211Z,14.20
2019-03-03T12:56:50.800Z,14.20
2019-03-03T12:59:19.803Z,14.20
2019-03-03T13:01:48.717Z,14.10
2019-03-03T13:04:20.579Z,14.10
2019-03-03T13:06:52.519Z,14.10
2019-03-03T13:09:21.452Z,14.00
2019-03-03T13:11:59.341Z,14.10
2019-03-03T13:14:34.414Z,14.10
2019-03-03T13:17:03.351Z,14.20
2019-03-03T13:19:41.412Z,14.30
2019-03-03T13:22:28.754Z,14.40
2019-03-03T13:25:16.233Z,14.40
2019-03-03T13:27:45.444Z,14.30
2019-03-03T13:30:21.074Z,14.30
2019-03-03T13:33:24.006Z,14.10
2019-03-03T13:36:13.343Z,14.30
2019-03-03T13:39:10.780Z,14.40
2019-03-03T13:41:49.022Z,14.40
2019-03-03T13:44:16.262Z,14.30
2019-03-03T13:46:43.361Z,14.20
2019-03-03T13:49:10.514Z,14.20
2019-03-03T13:51:37.661Z,14.20
2019-03-03T13:54:06.496Z,14.20
2019-03-03T13:56:34.716Z,14.30
2019-03-03T13:59:01.627Z,14.30
2019-03-03T14:01:32.252Z,14.40
2019-03-03T14:03:59.440Z,14.50
2019-03-03T14:06:26.632Z,14.60
2019-03-03T14:09:08.030Z,14.60
2019-03-03T14:11:35.985Z,14.60
2019-03-03T14:14:03.662Z,14.60
2019-03-03T14:16:32.042Z,14.60
2019-03-03T14:18:58.964Z,14.60
2019-03-03T14:21:25.838Z,14.70
2019-03-03T14:23:52.800Z,14.70
2019-03-03T14:26:19.902Z,14.70
2019-03-03T14:28:46.785Z,14.70
2019-03-03T14:31:13.994Z,14.70
2019-03-03T14:33:40.976Z,14.60
2019-03-03T14:36:07.941Z,14.60
2019-03-03T14:38:35.138Z,14.70
2019-03-03T14:41:02.269Z,14.70
2019-03-03T14:43:29.278Z,14.70
2019-03-03T14:45:57.988Z,14.90
2019-03-03T14:48:24.888Z,15.00
2019-03-03T14:50:52.004Z,14.90
2019-03-03T14:53:19.106Z,14.80
2019-03-03T14:55:45.859Z,14.80
2019-03-03T14:58:12.914Z,14.80
2019-03-03T15:00:39.991Z,14.80
2019-03-03T15:03:07.407Z,14.90
2019-03-03T15:05:34.618Z,15.00
2019-03-03T15:08:01.827Z,15.10
2019-03-03T15:10:29.174Z,15.10
2019-03-03T15:12:56.443Z,15.20
2019-03-03T15:15:32.322Z,15.20
2019-03-03T15:17:59.852Z,15.20
2019-03-03T15:20:27.080Z,15.20
2019-03-03T15:22:54.690Z,15.10
2019-03-03T15:25:22.153Z,15.10
2019-03-03T15:27:51.332Z,15.10
2019-03-03T15:30:20.794Z,15.10
2019-03-03T15:32:48.329Z,15.00
2019-03-03T15:35:16.602Z,14.80
2019-03-03T15:37:43.948Z,14.80
2019-03-03T15:40:26.960Z,14.80
2019-03-03T15:42:54.041Z,14.70
2019-03-03T15:45:24.942Z,14.70
2019-03-03T15:47:52.099Z,14.60
2019-03-03T15:50:20.185Z,14.70
2019-03-03T15:52:47.212Z,14.80
2019-03-03T15:55:18.867Z,14.80
2019-03-03T15:57:45.981Z,14.70
2019-03-03T16:00:17.165Z,14.70
2019-03-03T16:02:44.375Z,14.90
2019-03-03T16:05:13.880Z,14.90
2019-03-03T16:07:46.781Z,14.90
2019-03-03T16:10:19.706Z,14.80
2019-03-03T16:12:46.839Z,14.90
2019-03-03T16:15:15.161Z,14.90
2019-03-03T16:17:42.034Z,14.90
2019-03-03T16:20:11.620Z,14.90
2019-03-03T16:22:38.999Z,14.90
2019-03-03T16:25:09.859Z,14.90
2019-03-03T16:27:37.359Z,14.80
2019-03-03T16:30:08.254Z,14.80
2019-03-03T16:32:35.241Z,14.80
2019-03-03T16:35:02.334Z,14.80
2019-03-03T16:37:29.513Z,14.70
2019-03-03T16:39:56.365Z,14.70
2019-03-03T16:42:23.275Z,14.70
2019-03-03T16:44:49.909Z,14.60
2019-03-03T16:47:16.816Z,14.50
2019-03-03T16:49:43.663Z,14.50
2019-03-03T16:52:10.489Z,14.50
2019-03-03T16:54:37.719Z,14.50
2019-03-03T16:57:05.851Z,14.60
2019-03-03T16:59:32.706Z,14.70
2019-03-03T17:01:59.508Z,14.70
2019-03-03T17:04:26.975Z,14.60
2019-03-03T17:06:53.811Z,14.60
2019-03-03T17:09:20.588Z,14.60
2019-03-03T17:11:47.441Z,14.50
2019-03-03T17:14:14.323Z,14.50
2019-03-03T17:16:41.263Z,14.40
2019-03-03T17:19:08.462Z,14.50
2019-03-03T17:21:35.255Z,14.50
2019-03-03T17:24:03.238Z,14.50
2019-03-03T17:26:30.046Z,14.50
2019-03-03T17:28:56.773Z,14.40
2019-03-03T17:31:23.850Z,14.50
2019-03-03T17:33:50.676Z,14.50
2019-03-03T17:36:17.557Z,14.50
2019-03-03T17:38:44.609Z,14.40
2019-03-03T17:41:11.727Z,14.30
2019-03-03T17:43:38.575Z,14.30
2019-03-03T17:46:05.449Z,14.30
2019-03-03T17:48:32.145Z,14.40
2019-03-03T17:50:59.003Z,14.40
2019-03-03T17:53:27.590Z,14.30
2019-03-03T17:55:54.630Z,14.20
2019-03-03T17:58:21.390Z,14.10
2019-03-03T18:00:48.923Z,14.10
2019-03-03T18:03:15.830Z,14.00
2019-03-03T18:05:42.756Z,14.00
2019-03-03T18:08:10.992Z,14.00
2019-03-03T18:10:38.029Z,14.00
2019-03-03T18:13:04.849Z,14.10
2019-03-03T18:15:31.499Z,14.00
2019-03-03T18:17:58.138Z,14.00
2019-03-03T18:20:25.196Z,14.00
2019-03-03T18:22:52.099Z,14.00
2019-03-03T18:25:20.213Z,14.00
2019-03-03T18:27:47.198Z,14.00
2019-03-03T18:30:16.310Z,14.00
2019-03-03T18:32:43.149Z,14.00
2019-03-03T18:35:10.370Z,14.00
2019-03-03T18:37:39.407Z,13.90
2019-03-03T18:40:09.620Z,13.90
2019-03-03T18:42:36.891Z,14.00
2019-03-03T18:45:07.151Z,14.10
2019-03-03T18:47:34.071Z,14.20
2019-03-03T18:50:03.957Z,14.20
2019-03-03T18:52:31.852Z,14.20
2019-03-03T18:54:58.759Z,14.20
2019-03-03T18:57:25.485Z,14.20
2019-03-03T18:59:52.609Z,14.10
2019-03-03T19:02:19.558Z,14.10
2019-03-03T19:04:46.479Z,14.20
2019-03-03T19:07:13.557Z,14.20
2019-03-03T19:09:40.487Z,14.30
2019-03-03T19:12:07.596Z,14.30
2019-03-03T19:14:35.983Z,14.40
2019-03-03T19:17:03.032Z,14.30
2019-03-03T19:19:30.076Z,14.40
2019-03-03T19:21:57.023Z,14.50
2019-03-03T19:24:23.968Z,14.50
2019-03-03T19:26:50.653Z,14.60
2019-03-03T19:29:17.489Z,14.50
2019-03-03T19:31:44.624Z,14.50
2019-03-03T19:34:11.607Z,14.40
2019-03-03T19:36:38.786Z,14.40
2019-03-03T19:39:09.363Z,14.40
2019-03-03T19:41:36.810Z,14.30
2019-03-03T19:44:04.772Z,14.30
2019-03-03T19:46:31.737Z,14.30
2019-03-03T19:48:59.756Z,14.40
2019-03-03T19:51:27.800Z,14.40
2019-03-03T19:53:57.649Z,14.30
2019-03-03T19:56:25.329Z,14.30
2019-03-03T19:58:52.354Z,14.40
2019-03-03T20:01:19.690Z,14.40
2019-03-03T20:03:48.445Z,14.30
2019-03-03T20:06:15.414Z,14.30
2019-03-03T20:08:42.699Z,14.40
2019-03-03T20:11:10.217Z,14.40
2019-03-03T20:13:37.197Z,14.30
2019-03-03T20:16:05.171Z,14.40
2019-03-03T20:18:32.573Z,14.40
2019-03-03T20:21:00.496Z,14.40
2019-03-03T20:23:28.673Z,14.50
2019-03-03T20:25:55.627Z,14.50
2019-03-03T20:28:22.998Z,14.30
2019-03-03T20:30:50.622Z,14.30
2019-03-03T20:33:17.510Z,14.40
2019-03-03T20:35:46.358Z,14.30
2019-03-03T20:38:13.098Z,14.40
2019-03-03T20:40:40.222Z,14.30
2019-03-03T20:43:08.797Z,14.30
2019-03-03T20:45:35.748Z,14.20
2019-03-03T20:48:03.166Z,14.20
2019-03-03T20:50:30.200Z,14.30
2019-03-03T20:52:57.007Z,14.30
2019-03-03T20:55:25.364Z,14.30
2019-03-03T20:57:52.588Z,14.30
2019-03-03T21:00:22.662Z,14.20
2019-03-03T21:02:49.648Z,14.30
2019-03-03T21:05:16.802Z,14.20
2019-03-03T21:07:50.977Z,14.30
2019-03-03T21:10:16.309Z,14.30
2019-03-03T21:12:43.654Z,14.30
2019-03-03T21:15:11.543Z,14.30
2019-03-03T21:17:39.762Z,14.40
2019-03-03T21:20:10.480Z,14.40
2019-03-03T21:22:38.492Z,14.20
2019-03-03T21:25:08.266Z,14.20
2019-03-03T21:27:37.344Z,14.20
2019-03-03T21:30:13.212Z,14.10
2019-03-03T21:32:40.547Z,14.20
2019-03-03T21:35:10.677Z,14.30
2019-03-03T21:37:39.557Z,14.40
2019-03-03T21:40:21.666Z,14.50
2019-03-03T21:42:48.508Z,14.50
2019-03-03T21:45:17.391Z,14.50
2019-03-03T21:47:44.469Z,14.60
2019-03-03T21:50:20.063Z,14.60
2019-03-03T21:52:47.172Z,14.60
2019-03-03T21:55:14.317Z,14.50
2019-03-03T21:57:43.627Z,14.60
2019-03-03T22:00:26.387Z,14.70
2019-03-03T22:02:54.303Z,14.70
2019-03-03T22:05:21.315Z,14.90
2019-03-03T22:07:48.430Z,15.00
2019-03-03T22:10:15.328Z,15.10
2019-03-03T22:12:42.161Z,15.10
2019-03-03T22:15:10.869Z,15.20
2019-03-03T22:17:38.124Z,15.10
2019-03-03T22:20:08.821Z,14.90
2019-03-03T22:22:37.195Z,14.90
2019-03-03T22:25:10.877Z,14.90
2019-03-03T22:27:38.505Z,14.90
2019-03-03T22:30:11.801Z,14.90
2019-03-03T22:32:38.752Z,14.80
2019-03-03T22:35:06.953Z,14.70
2019-03-03T22:37:33.737Z,14.70
2019-03-03T22:40:10.742Z,14.60
2019-03-03T22:42:37.818Z,14.50
2019-03-03T22:45:08.667Z,14.60
2019-03-03T22:47:35.733Z,14.70
2019-03-03T22:50:05.549Z,14.80
2019-03-03T22:52:32.677Z,14.80
2019-03-03T22:54:59.670Z,14.70
2019-03-03T22:57:26.724Z,14.70
2019-03-03T22:59:53.457Z,14.70
2019-03-03T23:02:20.204Z,14.70
2019-03-03T23:05:00.231Z,14.70
2019-03-03T23:07:30.830Z,14.60
2019-03-03T23:10:16.305Z,14.60
2019-03-03T23:12:53.169Z,14.50
2019-03-03T23:15:35.988Z,14.50
2019-03-03T23:18:37.182Z,14.50
2019-03-03T23:21:19.489Z,14.40
2019-03-03T23:24:24.713Z,14.40
2019-03-03T23:26:53.459Z,14.30
2019-03-03T23:29:20.181Z,14.30
2019-03-03T23:31:47.286Z,14.30
2019-03-03T23:34:14.913Z,14.30
2019-03-03T23:36:41.706Z,14.30
2019-03-03T23:39:08.716Z,14.30
2019-03-03T23:41:36.333Z,14.30
2019-03-03T23:44:03.375Z,14.30
2019-03-03T23:46:30.404Z,14.40
2019-03-03T23:48:57.256Z,14.50
2019-03-03T23:51:24.123Z,14.50
2019-03-03T23:53:52.045Z,14.50
2019-03-03T23:56:20.096Z,14.40
2019-03-03T23:58:47.254Z,14.50
